createdAt,value
2018-10-05T00:03:13.670Z,11.90
2018-10-05T00:07:15.992Z,11.80
2018-10-05T00:11:18.348Z,11.70
2018-10-05T00:15:20.841Z,11.60
2018-10-05T00:19:23.172Z,11.60
2018-10-05T00:23:25.462Z,11.50
2018-10-05T00:27:27.871Z,11.20
2018-10-05T00:31:30.244Z,11.30
2018-10-05T00:35:33.546Z,11.00
2018-10-05T00:39:35.881Z,11.30
2018-10-05T00:43:38.219Z,10.90
2018-10-05T00:47:40.544Z,11.40
2018-10-05T00:51:42.810Z,11.00
2018-10-05T00:55:45.131Z,10.80
2018-10-05T00:59:47.420Z,11.00
2018-10-05T01:03:49.710Z,11.40
2018-10-05T01:07:52.140Z,11.40
2018-10-05T01:11:54.776Z,11.60
2018-10-05T01:15:57.136Z,11.60
2018-10-05T01:19:59.494Z,11.50
2018-10-05T01:24:01.773Z,11.50
2018-10-05T01:28:04.098Z,11.40
2018-10-05T01:32:06.516Z,11.10
2018-10-05T01:36:08.779Z,10.90
2018-10-05T01:40:11.122Z,11.00
2018-10-05T01:44:13.388Z,11.10
2018-10-05T01:48:15.670Z,10.70
2018-10-05T01:52:17.919Z,9.80
2018-10-05T01:56:20.234Z,9.90
2018-10-05T02:00:22.560Z,9.80
2018-10-05T02:04:24.864Z,9.10
2018-10-05T02:08:27.310Z,10.10
2018-10-05T02:12:29.640Z,10.50
2018-10-05T02:16:31.964Z,10.80
2018-10-05T02:20:34.240Z,11.10
2018-10-05T02:24:36.541Z,11.20
2018-10-05T02:28:38.801Z,11.10
2018-10-05T02:32:41.094Z,11.00
2018-10-05T02:36:43.411Z,11.00
2018-10-05T02:40:45.748Z,10.90
2018-10-05T02:44:48.005Z,10.80
2018-10-05T02:48:50.250Z,10.70
2018-10-05T02:52:52.827Z,10.00
2018-10-05T02:56:55.118Z,10.30
2018-10-05T03:01:08.922Z,10.20
2018-10-05T03:05:11.194Z,9.90
2018-10-05T03:09:13.515Z,9.90
2018-10-05T03:13:15.848Z,10.20
2018-10-05T03:17:18.200Z,10.70
2018-10-05T03:21:20.549Z,10.90
2018-10-05T03:25:22.918Z,10.80
2018-10-05T03:29:25.441Z,10.70
2018-10-05T03:33:28.395Z,10.50
2018-10-05T03:37:30.838Z,10.60
2018-10-05T03:41:33.209Z,10.80
2018-10-05T03:45:35.498Z,10.60
2018-10-05T03:49:37.862Z,10.60
2018-10-05T03:53:40.248Z,10.30
2018-10-05T03:57:42.643Z,10.20
2018-10-05T04:01:44.924Z,10.30
2018-10-05T04:05:47.180Z,10.20
2018-10-05T04:09:49.494Z,10.30
2018-10-05T04:13:51.802Z,10.20
2018-10-05T04:17:54.133Z,9.90
2018-10-05T04:21:56.584Z,10.10
2018-10-05T04:25:58.932Z,10.10
2018-10-05T04:30:01.231Z,9.60
2018-10-05T04:34:03.591Z,9.90
2018-10-05T04:38:05.942Z,10.00
2018-10-05T04:42:08.287Z,9.60
2018-10-05T04:46:10.588Z,10.00
2018-10-05T04:50:12.918Z,10.20
2018-10-05T04:54:15.244Z,10.30
2018-10-05T04:58:17.587Z,10.20
2018-10-05T05:02:19.939Z,10.40
2018-10-05T05:06:22.239Z,10.20
2018-10-05T05:10:24.541Z,10.10
2018-10-05T05:14:26.904Z,10.00
2018-10-05T05:18:29.132Z,10.00
2018-10-05T05:22:31.453Z,10.10
2018-10-05T05:26:33.808Z,10.00
2018-10-05T05:30:36.179Z,9.80
2018-10-05T05:34:38.624Z,9.50
2018-10-05T05:38:40.968Z,9.70
2018-10-05T05:42:43.272Z,9.30
2018-10-05T05:46:45.605Z,9.80
2018-10-05T05:50:47.897Z,10.10
2018-10-05T05:54:50.237Z,10.00
2018-10-05T05:58:52.604Z,9.40
2018-10-05T06:02:54.902Z,9.90
2018-10-05T06:06:57.327Z,10.10
2018-10-05T06:10:59.842Z,10.50
2018-10-05T06:15:02.233Z,10.80
2018-10-05T06:19:04.764Z,10.80
2018-10-05T06:23:07.117Z,11.00
2018-10-05T06:27:09.353Z,10.80
2018-10-05T06:31:11.818Z,11.40
2018-10-05T06:35:14.164Z,11.00
2018-10-05T06:39:16.473Z,11.90
2018-10-05T06:43:18.783Z,12.50
2018-10-05T06:47:21.194Z,13.30
2018-10-05T06:51:23.598Z,13.70
2018-10-05T06:55:25.911Z,13.90
2018-10-05T06:59:28.211Z,13.40
2018-10-05T07:03:30.536Z,14.20
2018-10-05T07:07:32.918Z,14.60
2018-10-05T07:11:35.391Z,14.70
2018-10-05T07:15:37.670Z,14.50
2018-10-05T07:19:40.078Z,15.20
2018-10-05T07:23:42.457Z,14.10
2018-10-05T07:27:44.787Z,14.80
2018-10-05T07:31:47.138Z,15.30
2018-10-05T07:35:49.612Z,15.10
2018-10-05T07:39:51.990Z,15.40
2018-10-05T07:43:54.246Z,16.60
2018-10-05T07:47:56.727Z,16.60
2018-10-05T07:51:59.193Z,17.30
2018-10-05T07:56:01.603Z,17.80
2018-10-05T08:00:04.056Z,17.60
2018-10-05T08:04:06.383Z,17.70
2018-10-05T08:08:08.763Z,16.80
2018-10-05T08:12:11.161Z,17.20
2018-10-05T08:16:13.508Z,16.30
2018-10-05T08:20:15.775Z,18.10
2018-10-05T08:24:18.103Z,18.00
2018-10-05T08:28:20.405Z,18.40
2018-10-05T08:32:22.743Z,16.50
2018-10-05T08:36:25.458Z,17.10
2018-10-05T08:40:27.740Z,18.10
2018-10-05T08:44:30.007Z,18.70
2018-10-05T08:48:35.042Z,18.60
2018-10-05T08:52:38.732Z,19.10
2018-10-05T08:56:41.045Z,18.20
2018-10-05T09:00:43.406Z,18.30
2018-10-05T09:04:47.359Z,18.70
2018-10-05T09:08:49.626Z,18.20
2018-10-05T09:12:51.999Z,18.80
2018-10-05T09:16:54.357Z,19.40
2018-10-05T09:20:56.738Z,19.70
2018-10-05T09:24:59.053Z,19.30
2018-10-05T09:29:01.522Z,19.60
2018-10-05T09:33:03.825Z,19.10
2018-10-05T09:37:06.131Z,18.30
2018-10-05T09:41:08.440Z,19.10
2018-10-05T09:45:10.790Z,20.10
2018-10-05T09:49:13.299Z,20.90
2018-10-05T09:53:15.590Z,20.90
2018-10-05T09:57:17.932Z,21.20
2018-10-05T10:01:25.896Z,21.00
2018-10-05T10:05:28.275Z,20.30
2018-10-05T10:09:30.650Z,20.10
2018-10-05T10:13:33.265Z,19.20
2018-10-05T10:17:35.608Z,18.40
2018-10-05T10:21:37.956Z,19.00
2018-10-05T10:25:40.317Z,20.20
2018-10-05T10:29:42.649Z,20.60
2018-10-05T10:33:45.030Z,19.80
2018-10-05T10:37:48.391Z,19.60
2018-10-05T10:41:50.740Z,19.70
2018-10-05T10:45:53.050Z,19.10
2018-10-05T10:49:55.362Z,19.00
2018-10-05T10:53:57.779Z,19.50
2018-10-05T10:57:59.991Z,20.50
2018-10-05T11:02:02.972Z,22.00
2018-10-05T11:06:06.073Z,21.00
2018-10-05T11:10:08.395Z,20.40
2018-10-05T11:14:10.715Z,20.30
2018-10-05T11:18:13.073Z,22.00
2018-10-05T11:22:15.400Z,21.10
2018-10-05T11:26:17.719Z,20.90
2018-10-05T11:30:20.024Z,20.50
2018-10-05T11:34:22.405Z,20.60
2018-10-05T11:38:24.791Z,20.30
2018-10-05T11:42:27.089Z,22.90
2018-10-05T11:46:30.242Z,22.00
2018-10-05T11:50:32.499Z,22.60
2018-10-05T11:54:34.944Z,22.10
2018-10-05T11:58:37.192Z,21.80
2018-10-05T12:02:39.579Z,21.20
2018-10-05T12:06:41.934Z,22.80
2018-10-05T12:10:44.232Z,22.20
2018-10-05T12:14:46.532Z,22.10
2018-10-05T12:18:48.850Z,22.80
2018-10-05T12:22:51.211Z,23.30
2018-10-05T12:26:53.574Z,21.70
2018-10-05T12:30:55.870Z,23.00
2018-10-05T12:34:58.271Z,23.90
2018-10-05T12:39:00.601Z,24.30
2018-10-05T12:43:02.946Z,25.00
2018-10-05T12:47:05.319Z,24.30
2018-10-05T12:51:07.704Z,24.80
2018-10-05T12:55:10.059Z,25.80
2018-10-05T12:59:12.354Z,25.10
2018-10-05T13:03:14.710Z,23.90
2018-10-05T13:07:17.079Z,25.90
2018-10-05T13:11:19.386Z,24.10
2018-10-05T13:15:21.760Z,27.00
2018-10-05T13:19:24.060Z,27.90
2018-10-05T13:23:26.381Z,28.70
2018-10-05T13:27:28.873Z,25.20
2018-10-05T13:31:31.524Z,26.30
2018-10-05T13:35:33.899Z,26.80
2018-10-05T13:39:36.224Z,27.30
2018-10-05T13:43:38.510Z,27.50
2018-10-05T13:47:40.874Z,28.10
2018-10-05T13:51:43.205Z,27.90
2018-10-05T13:55:45.592Z,29.10
2018-10-05T13:59:47.925Z,29.50
2018-10-05T14:03:50.222Z,29.30
2018-10-05T14:07:52.686Z,28.60
2018-10-05T14:11:54.960Z,28.40
2018-10-05T14:15:57.298Z,27.90
2018-10-05T14:19:59.620Z,27.70
2018-10-05T14:24:02.279Z,26.70
2018-10-05T14:28:04.623Z,26.20
2018-10-05T14:32:07.064Z,25.30
2018-10-05T14:36:09.448Z,25.20
2018-10-05T14:40:11.769Z,24.80
2018-10-05T14:44:14.170Z,24.20
2018-10-05T14:48:16.536Z,24.30
2018-10-05T14:52:22.763Z,24.60
2018-10-05T14:56:25.110Z,25.10
2018-10-05T15:00:27.456Z,25.30
2018-10-05T15:04:29.832Z,25.70
2018-10-05T15:08:32.211Z,25.20
2018-10-05T15:12:34.627Z,25.30
2018-10-05T15:16:37.169Z,25.00
2018-10-05T15:20:40.257Z,24.90
2018-10-05T15:24:43.289Z,25.40
2018-10-05T15:28:45.573Z,25.40
2018-10-05T15:32:47.994Z,25.00
2018-10-05T15:36:50.328Z,24.90
2018-10-05T15:40:52.707Z,24.70
2018-10-05T15:44:55.030Z,24.90
2018-10-05T15:48:58.115Z,25.00
2018-10-05T15:53:00.512Z,25.10
2018-10-05T15:57:03.282Z,24.70
2018-10-05T16:01:07.330Z,24.40
2018-10-05T16:05:10.274Z,24.40
2018-10-05T16:09:12.602Z,24.70
2018-10-05T16:13:15.749Z,24.60
2018-10-05T16:17:18.113Z,24.80
2018-10-05T16:21:20.499Z,24.50
2018-10-05T16:25:22.889Z,24.20
2018-10-05T16:29:25.307Z,24.30
2018-10-05T16:33:27.653Z,24.40
2018-10-05T16:37:29.944Z,24.50
2018-10-05T16:41:32.310Z,24.40
2018-10-05T16:45:34.654Z,24.10
2018-10-05T16:49:37.063Z,24.00
2018-10-05T16:53:39.430Z,23.90
2018-10-05T16:57:41.788Z,23.50
2018-10-05T17:01:44.385Z,23.30
2018-10-05T17:05:47.807Z,22.80
2018-10-05T17:09:50.147Z,22.70
2018-10-05T17:13:52.477Z,22.10
2018-10-05T17:17:54.836Z,22.10
2018-10-05T17:21:57.202Z,21.80
2018-10-05T17:25:59.699Z,21.10
2018-10-05T17:30:03.106Z,20.60
2018-10-05T17:34:05.485Z,20.70
2018-10-05T17:38:07.863Z,20.60
2018-10-05T17:42:10.188Z,20.20
2018-10-05T17:46:12.578Z,19.80
2018-10-05T17:50:14.952Z,19.40
2018-10-05T17:54:17.334Z,19.80
2018-10-05T17:58:19.692Z,20.00
2018-10-05T18:02:22.842Z,20.40
2018-10-05T18:06:26.056Z,20.20
2018-10-05T18:10:28.458Z,20.60
2018-10-05T18:14:30.893Z,20.70
2018-10-05T18:18:33.614Z,20.70
2018-10-05T18:22:36.068Z,20.10
2018-10-05T18:26:38.408Z,20.40
2018-10-05T18:30:41.752Z,20.80
2018-10-05T18:34:45.092Z,20.70
2018-10-05T18:38:48.332Z,20.70
2018-10-05T18:42:51.342Z,20.90
2018-10-05T18:46:54.523Z,21.00
2018-10-05T18:50:57.043Z,21.20
2018-10-05T18:54:59.424Z,20.40
2018-10-05T18:59:01.867Z,20.70
2018-10-05T19:03:04.553Z,20.60
2018-10-05T19:07:07.971Z,20.20
2018-10-05T19:11:10.382Z,20.00
2018-10-05T19:15:13.559Z,19.60
2018-10-05T19:19:16.351Z,19.10
2018-10-05T19:23:18.778Z,19.30
2018-10-05T19:27:21.143Z,18.80
2018-10-05T19:31:23.572Z,18.90
2018-10-05T19:35:26.003Z,18.00
2018-10-05T19:39:28.371Z,17.60
2018-10-05T19:43:30.866Z,18.10
2018-10-05T19:47:33.756Z,18.00
2018-10-05T19:51:36.240Z,17.10
2018-10-05T19:55:39.057Z,17.70
2018-10-05T19:59:43.066Z,16.20
2018-10-05T20:03:45.652Z,16.60
2018-10-05T20:07:47.991Z,17.00
2018-10-05T20:11:50.831Z,16.20
2018-10-05T20:15:54.290Z,17.00
2018-10-05T20:19:57.968Z,16.80
2018-10-05T20:24:00.627Z,17.10
2018-10-05T20:28:03.397Z,17.20
2018-10-05T20:32:06.245Z,16.40
2018-10-05T20:36:09.152Z,16.90
2018-10-05T20:40:11.384Z,16.70
2018-10-05T20:44:13.703Z,16.90
2018-10-05T20:48:16.105Z,17.30
2018-10-05T20:52:19.795Z,17.70
2018-10-05T20:56:23.188Z,17.50
2018-10-05T21:00:25.872Z,17.20
2018-10-05T21:04:28.321Z,17.50
2018-10-05T21:08:31.349Z,17.60
2018-10-05T21:12:33.747Z,18.60
2018-10-05T21:16:36.347Z,18.60
2018-10-05T21:20:38.699Z,18.60
2018-10-05T21:24:41.097Z,17.90
2018-10-05T21:28:43.844Z,18.80
2018-10-05T21:32:46.449Z,19.30
2018-10-05T21:36:48.755Z,19.40
2018-10-05T21:40:51.178Z,19.60
2018-10-05T21:44:53.537Z,20.10
2018-10-05T21:48:55.853Z,20.10
2018-10-05T21:52:59.381Z,20.00
2018-10-05T21:57:01.735Z,19.60
2018-10-05T22:01:04.253Z,19.10
2018-10-05T22:05:07.057Z,18.60
2018-10-05T22:09:10.855Z,18.80
2018-10-05T22:13:13.326Z,19.40
2018-10-05T22:17:15.782Z,19.30
2018-10-05T22:21:19.575Z,19.00
2018-10-05T22:25:22.185Z,19.20
2018-10-05T22:29:24.670Z,19.30
2018-10-05T22:33:27.054Z,18.90
2018-10-05T22:37:29.417Z,19.10
2018-10-05T22:41:31.786Z,18.90
2018-10-05T22:45:34.150Z,18.90
2018-10-05T22:49:36.595Z,18.30
2018-10-05T22:53:38.994Z,18.40
2018-10-05T22:57:41.310Z,18.40
2018-10-05T23:01:43.661Z,18.10
2018-10-05T23:05:46.136Z,18.30
2018-10-05T23:09:48.600Z,18.10
2018-10-05T23:13:50.941Z,18.20
2018-10-05T23:17:53.341Z,18.00
2018-10-05T23:21:55.819Z,18.20
2018-10-05T23:25:58.278Z,18.20
2018-10-05T23:30:00.681Z,18.30
2018-10-05T23:34:03.001Z,18.40
2018-10-05T23:38:05.970Z,18.60
2018-10-05T23:42:08.255Z,18.70
2018-10-05T23:46:10.609Z,18.90
2018-10-05T23:50:13.010Z,18.80
2018-10-05T23:54:15.329Z,18.90
2018-10-05T23:58:17.672Z,19.10
